createdAt,value
2023-02-03T00:08:58.498Z,6.87
2023-02-03T00:14:02.728Z,7.67
2023-02-03T00:19:17.486Z,10.00
2023-02-03T00:24:07.397Z,6.63
2023-02-03T00:28:52.960Z,5.70
2023-02-03T00:33:42.682Z,7.43
2023-02-03T00:38:31.152Z,8.00
2023-02-03T00:43:19.222Z,7.60
2023-02-03T00:48:10.121Z,9.00
2023-02-03T00:52:53.573Z,6.93
2023-02-03T00:57:43.163Z,5.50
2023-02-03T01:02:32.532Z,5.53
2023-02-03T01:07:34.573Z,6.03
2023-02-03T01:12:22.743Z,4.57
2023-02-03T01:17:13.166Z,5.17
2023-02-03T01:28:10.341Z,7.37
2023-02-03T01:38:46.919Z,3.37
2023-02-03T01:43:50.714Z,5.83
2023-02-03T01:49:10.040Z,4.53
2023-02-03T01:54:00.456Z,4.13
2023-02-03T01:59:01.059Z,4.50
2023-02-03T02:04:20.593Z,5.23
2023-02-03T02:09:07.826Z,2.10
2023-02-03T02:19:50.022Z,4.10
2023-02-03T02:38:45.308Z,2.53
2023-02-03T02:55:06.801Z,1.50
2023-02-03T03:00:36.495Z,1.50
2023-02-03T03:05:24.165Z,2.47
2023-02-03T03:10:46.881Z,2.33
2023-02-03T03:15:36.408Z,3.00
2023-02-03T03:20:25.838Z,3.83
2023-02-03T03:25:24.980Z,3.80
2023-02-03T03:30:19.061Z,3.53
2023-02-03T03:40:51.475Z,4.07
2023-02-03T03:45:57.227Z,4.87
2023-02-03T03:50:49.195Z,3.77
2023-02-03T03:55:35.855Z,5.00
2023-02-03T04:00:33.200Z,4.53
2023-02-03T04:05:27.937Z,5.13
2023-02-03T04:10:26.505Z,5.23
2023-02-03T04:15:19.325Z,4.70
2023-02-03T04:20:08.749Z,3.70
2023-02-03T04:24:53.879Z,3.77
2023-02-03T04:29:40.694Z,5.03
2023-02-03T04:34:29.674Z,4.67
2023-02-03T04:39:16.451Z,5.17
2023-02-03T04:44:06.261Z,5.47
2023-02-03T04:48:51.752Z,5.73
2023-02-03T04:53:40.329Z,5.97
2023-02-03T04:58:29.820Z,7.93
2023-02-03T05:03:17.381Z,7.00
2023-02-03T05:08:10.400Z,6.80
2023-02-03T05:13:10.065Z,5.67
2023-02-03T05:18:29.047Z,7.23
2023-02-03T05:23:39.090Z,7.60
2023-02-03T05:34:12.446Z,8.87
2023-02-03T05:39:06.300Z,6.70
2023-02-03T05:44:04.218Z,7.60
2023-02-03T05:48:57.729Z,9.00
2023-02-03T05:53:58.874Z,8.67
2023-02-03T06:04:37.928Z,8.83
2023-02-03T06:09:52.581Z,8.43
2023-02-03T06:14:48.194Z,10.17
2023-02-03T06:19:32.906Z,8.17
2023-02-03T06:25:30.854Z,6.63
2023-02-03T06:31:38.427Z,5.97
2023-02-03T06:36:54.477Z,7.80
2023-02-03T06:41:55.876Z,8.23
2023-02-03T06:47:16.711Z,7.80
2023-02-03T06:52:38.337Z,7.70
2023-02-03T06:57:26.642Z,6.93
2023-02-03T07:02:17.988Z,11.00
2023-02-03T07:07:10.457Z,6.70
2023-02-03T07:12:26.037Z,6.83
2023-02-03T07:17:59.297Z,7.17
2023-02-03T07:22:44.614Z,4.97
2023-02-03T07:32:41.760Z,4.30
2023-02-03T07:37:27.565Z,4.30
2023-02-03T07:42:18.359Z,6.47
2023-02-03T07:47:35.630Z,3.53
2023-02-03T07:52:22.447Z,5.27
2023-02-03T07:57:10.038Z,4.17
2023-02-03T08:02:00.264Z,5.30
2023-02-03T08:06:44.736Z,3.83
2023-02-03T08:11:32.915Z,3.20
2023-02-03T08:16:36.708Z,4.63
2023-02-03T08:27:03.085Z,3.47
2023-02-03T08:32:20.979Z,3.80
2023-02-03T08:37:43.210Z,4.17
2023-02-03T08:42:47.122Z,3.97
2023-02-03T08:58:46.598Z,4.10
2023-02-03T09:09:42.335Z,3.77
2023-02-03T09:14:31.534Z,9.30
2023-02-03T09:19:38.622Z,5.50
2023-02-03T09:30:51.058Z,4.87
2023-02-03T09:36:22.551Z,6.77
2023-02-03T09:47:52.299Z,6.80
2023-02-03T09:53:29.058Z,8.73
2023-02-03T10:04:40.821Z,6.27
2023-02-03T10:10:12.717Z,7.17
2023-02-03T10:16:19.553Z,5.93
2023-02-03T10:21:25.495Z,6.07
2023-02-03T10:26:56.473Z,5.13
2023-02-03T10:31:53.740Z,4.07
2023-02-03T10:36:55.808Z,7.27
2023-02-03T10:42:29.358Z,5.47
2023-02-03T10:47:31.081Z,5.33
2023-02-03T10:52:58.815Z,4.97
2023-02-03T10:57:59.343Z,5.87
2023-02-03T11:08:19.724Z,3.67
2023-02-03T11:14:17.018Z,6.10
2023-02-03T11:19:30.105Z,4.80
2023-02-03T11:24:51.785Z,3.57
2023-02-03T11:29:57.052Z,2.63
2023-02-03T11:35:15.955Z,3.70
2023-02-03T11:59:05.021Z,3.37
2023-02-03T12:11:18.646Z,2.17
2023-02-03T12:16:38.871Z,2.40
2023-02-03T12:21:54.660Z,1.53
2023-02-03T12:33:09.254Z,1.30
2023-02-03T12:38:27.724Z,1.70
2023-02-03T12:43:38.509Z,1.50
2023-02-03T12:48:41.407Z,1.70
2023-02-03T12:54:30.861Z,1.60
2023-02-03T12:59:45.869Z,3.03
2023-02-03T13:04:57.052Z,2.70
2023-02-03T13:10:00.164Z,5.47
2023-02-03T13:20:34.295Z,4.87
2023-02-03T13:25:27.647Z,3.83
2023-02-03T13:31:12.928Z,5.80
2023-02-03T13:37:27.683Z,8.07
2023-02-03T13:42:47.409Z,5.70
2023-02-03T13:48:06.672Z,7.73
2023-02-03T13:53:24.700Z,6.93
2023-02-03T14:04:26.861Z,6.57
2023-02-03T14:10:32.392Z,11.97
2023-02-03T14:21:57.788Z,6.30
2023-02-03T14:27:31.952Z,8.27
2023-02-03T14:40:08.446Z,7.73
2023-02-03T14:45:38.920Z,7.60
2023-02-03T14:51:17.857Z,11.07
2023-02-03T15:08:01.284Z,10.23
2023-02-03T15:13:38.131Z,12.67
2023-02-03T15:30:29.872Z,7.37
2023-02-03T15:35:38.792Z,10.70
2023-02-03T15:47:48.478Z,18.90
2023-02-03T15:54:13.266Z,12.60
2023-02-03T15:59:50.244Z,16.63
2023-02-03T16:04:38.376Z,11.10
2023-02-03T16:10:00.433Z,9.27
2023-02-03T16:15:03.699Z,8.80
2023-02-03T16:20:33.775Z,16.37
2023-02-03T16:26:10.476Z,9.90
2023-02-03T16:31:29.945Z,8.97
2023-02-03T16:36:40.589Z,7.37
2023-02-03T16:41:42.460Z,9.43
2023-02-03T16:46:59.585Z,9.90
2023-02-03T16:51:49.544Z,9.20
2023-02-03T17:01:59.559Z,12.83
2023-02-03T17:17:14.301Z,12.33
2023-02-03T17:21:58.222Z,13.87
2023-02-03T17:26:58.866Z,12.33
2023-02-03T17:31:48.075Z,11.23
2023-02-03T17:36:39.067Z,13.97
2023-02-03T18:03:20.440Z,13.33
2023-02-03T18:08:16.170Z,10.33
2023-02-03T18:13:41.092Z,10.80
2023-02-03T18:18:41.132Z,14.37
2023-02-03T18:23:48.923Z,13.27
2023-02-03T18:28:39.150Z,12.17
2023-02-03T18:34:11.098Z,11.57
2023-02-03T18:39:05.717Z,12.27
2023-02-03T18:44:07.605Z,11.27
2023-02-03T18:49:09.660Z,8.77
2023-02-03T18:54:27.248Z,11.40
2023-02-03T18:59:36.417Z,9.20
2023-02-03T19:04:25.028Z,14.20
2023-02-03T19:09:51.717Z,13.90
2023-02-03T19:37:33.088Z,23.10
2023-02-03T19:43:24.835Z,14.30
2023-02-03T20:00:09.870Z,13.20
2023-02-03T20:06:06.772Z,10.13
2023-02-03T20:50:06.945Z,11.17
2023-02-03T22:22:06.154Z,13.10
2023-02-03T22:38:39.706Z,15.30
2023-02-03T23:32:29.207Z,7.00
2023-02-03T23:37:13.565Z,10.30
2023-02-03T23:42:06.669Z,6.50
2023-02-03T23:47:03.993Z,9.83
2023-02-03T23:52:11.282Z,5.87
2023-02-03T23:57:19.737Z,10.33
